createdAt,value
2023-03-23T15:57:58.358Z,0.40
2023-03-23T16:00:27.812Z,0.50
2023-03-23T16:02:59.255Z,0.50
2023-03-23T16:05:27.726Z,0.40
2023-03-23T16:07:54.787Z,0.40
2023-03-23T16:10:24.371Z,0.40
2023-03-23T16:12:51.349Z,0.40
2023-03-23T16:15:18.752Z,0.50
2023-03-23T16:17:46.723Z,0.45
2023-03-23T16:20:19.264Z,0.40
2023-03-23T16:22:47.048Z,0.40
2023-03-23T16:25:14.900Z,0.50
2023-03-23T16:27:42.731Z,0.50
2023-03-23T16:30:22.411Z,0.47
2023-03-23T16:32:49.462Z,0.43
2023-03-23T16:35:16.997Z,0.60
2023-03-23T16:37:48.938Z,0.30
2023-03-23T16:40:18.315Z,0.40
2023-03-23T16:42:45.342Z,0.60
2023-03-23T16:45:13.854Z,0.60
2023-03-23T16:47:41.650Z,0.60
2023-03-23T16:50:12.181Z,0.60
2023-03-23T16:52:46.495Z,0.43
2023-03-23T16:55:16.497Z,0.60
2023-03-23T16:57:43.917Z,0.70
2023-03-23T17:00:16.372Z,0.68
2023-03-23T17:02:44.258Z,0.60
2023-03-23T17:05:11.817Z,0.70
2023-03-23T17:07:40.396Z,0.40
2023-03-23T17:10:09.498Z,0.50
2023-03-23T17:12:37.145Z,0.50
2023-03-23T17:15:04.404Z,0.60
2023-03-23T17:17:31.625Z,0.70
2023-03-23T17:19:58.834Z,0.60
2023-03-23T17:22:26.099Z,0.40
2023-03-23T17:24:52.946Z,0.60
2023-03-23T17:27:21.468Z,0.57
2023-03-23T17:29:48.361Z,0.68
2023-03-23T17:32:15.713Z,0.50
2023-03-23T17:34:42.680Z,0.65
2023-03-23T17:37:09.890Z,0.52
2023-03-23T17:39:43.206Z,0.60
2023-03-23T17:42:11.089Z,0.50
2023-03-23T17:44:38.015Z,0.60
2023-03-23T17:47:05.338Z,0.60
2023-03-23T17:49:32.513Z,0.50
2023-03-23T17:51:59.897Z,0.70
2023-03-23T17:54:29.487Z,0.60
2023-03-23T17:56:58.565Z,0.90
2023-03-23T17:59:26.038Z,0.60
2023-03-23T18:01:53.653Z,0.88
2023-03-23T18:04:20.826Z,0.73
2023-03-23T18:06:47.654Z,0.70
2023-03-23T18:09:15.538Z,0.63
2023-03-23T18:11:42.493Z,0.63
2023-03-23T18:14:09.483Z,0.80
2023-03-23T18:16:36.624Z,0.50
2023-03-23T18:19:03.575Z,0.80
2023-03-23T18:21:30.682Z,0.60
2023-03-23T18:23:59.502Z,0.70
2023-03-23T18:26:28.304Z,0.70
2023-03-23T18:28:55.906Z,0.70
2023-03-23T18:31:23.118Z,0.82
2023-03-23T18:33:51.297Z,0.70
2023-03-23T18:36:20.730Z,0.80
2023-03-23T18:38:48.429Z,0.70
2023-03-23T18:41:16.163Z,0.90
2023-03-23T18:43:43.061Z,0.80
2023-03-23T18:46:09.919Z,0.98
2023-03-23T18:48:37.654Z,0.93
2023-03-23T18:51:04.783Z,1.10
2023-03-23T18:53:31.829Z,0.90
2023-03-23T18:56:10.578Z,1.10
2023-03-23T18:58:38.088Z,1.10
2023-03-23T19:01:07.472Z,1.00
2023-03-23T19:03:36.207Z,1.00
2023-03-23T19:06:04.598Z,1.17
2023-03-23T19:08:32.720Z,1.30
2023-03-23T19:11:03.358Z,1.17
2023-03-23T19:13:34.029Z,1.60
2023-03-23T19:16:01.429Z,1.48
2023-03-23T19:18:28.454Z,1.30
2023-03-23T19:21:13.748Z,1.48
2023-03-23T19:23:42.305Z,1.30
2023-03-23T19:26:16.273Z,1.20
2023-03-23T19:29:22.981Z,1.40
2023-03-23T19:31:29.928Z,1.23
2023-03-23T19:33:56.893Z,1.20
2023-03-23T19:36:26.696Z,1.30
2023-03-23T19:38:54.948Z,1.30
2023-03-23T19:41:22.293Z,1.20
2023-03-23T19:43:49.607Z,1.17
2023-03-23T19:46:16.975Z,1.17
2023-03-23T19:48:46.165Z,1.08
2023-03-23T19:51:17.185Z,1.17
2023-03-23T19:53:44.020Z,2.20
2023-03-23T19:56:14.150Z,1.85
2023-03-23T19:58:41.221Z,2.00
2023-03-23T20:01:08.812Z,2.10
2023-03-23T20:03:36.578Z,2.15
2023-03-23T20:06:08.278Z,1.88
2023-03-23T20:08:35.509Z,2.47
2023-03-23T20:11:17.393Z,2.63
2023-03-23T20:13:45.437Z,2.03
2023-03-23T20:16:13.180Z,2.20
2023-03-23T20:18:41.052Z,1.90
2023-03-23T20:21:13.938Z,1.67
2023-03-23T20:23:42.760Z,1.70
2023-03-23T20:26:19.510Z,1.55
2023-03-23T20:28:47.724Z,1.63
2023-03-23T20:31:23.113Z,1.95
2023-03-23T20:34:00.537Z,1.73
2023-03-23T20:36:50.138Z,1.52
2023-03-23T20:39:21.311Z,1.73
2023-03-23T20:41:50.823Z,1.55
2023-03-23T20:44:19.914Z,1.70
2023-03-23T20:46:48.714Z,1.88
2023-03-23T20:49:16.173Z,1.52
2023-03-23T20:51:44.869Z,1.45
2023-03-23T20:54:14.082Z,1.50
2023-03-23T20:56:42.457Z,1.40
2023-03-23T20:59:10.938Z,1.40
2023-03-23T21:01:39.889Z,1.40
2023-03-23T21:04:15.559Z,1.35
2023-03-23T21:06:44.294Z,1.35
2023-03-23T21:09:11.816Z,1.38
2023-03-23T21:11:38.814Z,1.50
2023-03-23T21:14:06.705Z,1.40
2023-03-23T21:16:33.811Z,1.38
2023-03-23T21:19:00.849Z,1.70
2023-03-23T21:21:28.276Z,1.60
2023-03-23T21:23:55.733Z,1.30
2023-03-23T21:26:26.212Z,1.48
2023-03-23T21:28:54.052Z,1.80
2023-03-23T21:31:26.779Z,1.95
2023-03-23T21:33:53.633Z,1.90
2023-03-23T21:36:20.501Z,1.98
2023-03-23T21:38:50.061Z,1.50
2023-03-23T21:41:17.096Z,1.60
2023-03-23T21:43:45.725Z,1.90
2023-03-23T21:46:18.137Z,1.60
2023-03-23T21:48:50.810Z,1.40
2023-03-23T21:51:23.371Z,1.40
2023-03-23T21:53:54.124Z,1.58
2023-03-23T21:56:23.280Z,1.50
2023-03-23T21:58:50.688Z,1.45
2023-03-23T22:01:17.943Z,1.45
2023-03-23T22:03:45.899Z,1.50
2023-03-23T22:06:20.920Z,1.70
2023-03-23T22:08:48.200Z,1.60
2023-03-23T22:11:19.502Z,1.77
2023-03-23T22:13:46.674Z,1.80
2023-03-23T22:16:17.768Z,1.92
2023-03-23T22:18:46.423Z,1.58
2023-03-23T22:21:15.485Z,1.58
2023-03-23T22:23:43.184Z,1.70
2023-03-23T22:26:10.895Z,1.52
2023-03-23T22:28:39.016Z,1.35
2023-03-23T22:31:09.175Z,1.48
2023-03-23T22:33:36.940Z,1.48
2023-03-23T22:36:06.327Z,1.50
2023-03-23T22:38:38.379Z,1.35
2023-03-23T22:41:07.073Z,1.50
2023-03-23T22:43:35.155Z,1.63
2023-03-23T22:46:02.613Z,1.58
2023-03-23T22:48:29.779Z,1.40
2023-03-23T22:50:58.432Z,1.58
2023-03-23T22:53:25.953Z,1.80
2023-03-23T22:55:55.946Z,1.48
2023-03-23T22:58:23.794Z,1.42
2023-03-23T23:00:56.483Z,2.05
2023-03-23T23:03:23.812Z,1.40
2023-03-23T23:05:52.108Z,1.50
2023-03-23T23:08:19.485Z,1.60
2023-03-23T23:10:48.333Z,1.73
2023-03-23T23:13:16.115Z,1.65
2023-03-23T23:15:45.777Z,1.52
2023-03-23T23:18:12.765Z,1.77
2023-03-23T23:20:40.446Z,1.67
2023-03-23T23:23:07.321Z,1.70
2023-03-23T23:25:34.496Z,1.67
2023-03-23T23:28:02.844Z,1.88
2023-03-23T23:30:30.648Z,1.60
2023-03-23T23:32:58.919Z,1.65
2023-03-23T23:35:26.316Z,1.52
2023-03-23T23:37:53.636Z,1.55
2023-03-23T23:40:20.888Z,1.60
2023-03-23T23:42:50.191Z,1.42
2023-03-23T23:45:18.929Z,1.50
2023-03-23T23:47:46.250Z,1.63
2023-03-23T23:50:14.046Z,1.70
2023-03-23T23:52:42.554Z,1.75
2023-03-23T23:55:11.577Z,1.45
2023-03-23T23:57:38.645Z,1.80
